createdAt,value
2023-03-15T00:00:31.088Z,78.84
2023-03-15T00:03:18.573Z,79.27
2023-03-15T00:05:48.356Z,78.57
2023-03-15T00:08:19.039Z,78.64
2023-03-15T00:10:48.143Z,78.85
2023-03-15T00:13:16.744Z,78.45
2023-03-15T00:15:48.999Z,78.69
2023-03-15T00:18:17.727Z,78.02
2023-03-15T00:20:45.755Z,78.51
2023-03-15T00:23:14.502Z,77.85
2023-03-15T00:25:46.631Z,77.48
2023-03-15T00:28:14.347Z,77.88
2023-03-15T00:30:42.679Z,77.32
2023-03-15T00:33:11.642Z,77.00
2023-03-15T00:35:40.998Z,77.44
2023-03-15T00:38:09.240Z,76.72
2023-03-15T00:40:38.536Z,76.57
2023-03-15T00:43:07.393Z,75.73
2023-03-15T00:45:35.390Z,75.45
2023-03-15T00:48:02.921Z,75.46
2023-03-15T00:50:30.832Z,75.43
2023-03-15T00:52:58.267Z,75.46
2023-03-15T00:55:26.096Z,74.98
2023-03-15T00:57:53.571Z,75.14
2023-03-15T01:00:24.265Z,74.99
2023-03-15T01:02:52.100Z,75.09
2023-03-15T01:05:20.207Z,75.06
2023-03-15T01:07:48.165Z,74.69
2023-03-15T01:10:16.918Z,75.88
2023-03-15T01:12:45.036Z,75.41
2023-03-15T01:15:14.948Z,75.06
2023-03-15T01:17:43.856Z,74.56
2023-03-15T01:20:13.608Z,74.39
2023-03-15T01:22:41.055Z,73.18
2023-03-15T01:25:09.907Z,73.42
2023-03-15T01:27:37.631Z,73.62
2023-03-15T01:30:06.504Z,73.56
2023-03-15T01:32:34.375Z,73.35
2023-03-15T01:35:03.963Z,73.92
2023-03-15T01:37:31.374Z,73.63
2023-03-15T01:39:59.453Z,73.33
2023-03-15T01:42:26.998Z,73.79
2023-03-15T01:44:56.774Z,74.57
2023-03-15T01:47:24.523Z,74.62
2023-03-15T01:49:58.585Z,74.12
2023-03-15T01:52:31.846Z,74.80
2023-03-15T01:55:02.583Z,75.48
2023-03-15T01:57:34.421Z,75.09
2023-03-15T02:00:06.739Z,75.59
2023-03-15T02:02:34.427Z,75.54
2023-03-15T02:05:09.108Z,75.77
2023-03-15T02:07:43.379Z,75.34
2023-03-15T02:10:14.916Z,75.11
2023-03-15T02:12:46.770Z,74.49
2023-03-15T02:15:15.183Z,75.05
2023-03-15T02:17:45.037Z,74.85
2023-03-15T02:20:24.377Z,75.31
2023-03-15T02:22:56.865Z,74.94
2023-03-15T02:25:36.985Z,74.81
2023-03-15T02:28:07.994Z,74.61
2023-03-15T02:30:36.181Z,74.65
2023-03-15T02:33:08.204Z,74.99
2023-03-15T02:35:36.066Z,75.38
2023-03-15T02:38:03.710Z,74.42
2023-03-15T02:40:31.915Z,74.44
2023-03-15T02:43:02.387Z,74.59
2023-03-15T02:45:33.572Z,74.66
2023-03-15T02:48:04.307Z,74.33
2023-03-15T02:50:32.597Z,75.40
2023-03-15T02:53:00.104Z,74.91
2023-03-15T02:55:27.911Z,75.19
2023-03-15T02:57:55.388Z,74.34
2023-03-15T03:00:23.267Z,74.02
2023-03-15T03:02:52.295Z,73.91
2023-03-15T03:05:20.582Z,74.02
2023-03-15T03:07:48.367Z,73.81
2023-03-15T03:10:18.830Z,73.53
2023-03-15T03:12:46.549Z,73.81
2023-03-15T03:15:14.314Z,73.96
2023-03-15T03:17:41.843Z,73.55
2023-03-15T03:20:12.833Z,73.35
2023-03-15T03:22:42.030Z,73.32
2023-03-15T03:25:10.733Z,73.00
2023-03-15T03:27:38.402Z,73.36
2023-03-15T03:30:09.024Z,73.40
2023-03-15T03:32:36.509Z,73.61
2023-03-15T03:35:04.838Z,73.58
2023-03-15T03:37:33.874Z,73.54
2023-03-15T03:40:01.901Z,72.66
2023-03-15T03:42:29.426Z,72.68
2023-03-15T03:44:57.283Z,73.13
2023-03-15T03:47:24.809Z,72.93
2023-03-15T03:49:52.948Z,72.40
2023-03-15T03:52:20.409Z,72.88
2023-03-15T03:54:49.686Z,72.32
2023-03-15T03:57:17.079Z,72.82
2023-03-15T03:59:44.835Z,72.92
2023-03-15T04:02:12.506Z,72.79
2023-03-15T04:04:40.371Z,72.70
2023-03-15T04:07:07.939Z,72.94
2023-03-15T04:09:36.086Z,72.98
2023-03-15T04:12:05.777Z,73.25
2023-03-15T04:14:33.679Z,73.53
2023-03-15T04:17:01.057Z,73.61
2023-03-15T04:19:29.075Z,74.18
2023-03-15T04:21:56.722Z,74.00
2023-03-15T04:24:24.565Z,74.38
2023-03-15T04:26:52.025Z,75.04
2023-03-15T04:29:21.453Z,75.01
2023-03-15T04:31:48.870Z,74.96
2023-03-15T04:34:16.739Z,75.22
2023-03-15T04:36:44.142Z,75.73
2023-03-15T04:39:12.216Z,75.10
2023-03-15T04:41:39.620Z,75.56
2023-03-15T04:44:07.474Z,75.20
2023-03-15T04:46:36.390Z,75.40
2023-03-15T04:49:04.255Z,75.10
2023-03-15T04:51:31.757Z,74.67
2023-03-15T04:53:59.575Z,74.94
2023-03-15T04:56:27.445Z,75.04
2023-03-15T04:58:55.406Z,75.49
2023-03-15T05:01:27.936Z,75.91
2023-03-15T05:03:57.203Z,76.31
2023-03-15T05:06:25.237Z,76.21
2023-03-15T05:08:53.963Z,75.69
2023-03-15T05:11:21.722Z,75.45
2023-03-15T05:13:49.704Z,75.03
2023-03-15T05:16:17.350Z,76.00
2023-03-15T05:18:45.343Z,75.45
2023-03-15T05:21:14.399Z,75.36
2023-03-15T05:23:42.281Z,75.49
2023-03-15T05:26:12.544Z,75.73
2023-03-15T05:28:40.459Z,75.34
2023-03-15T05:31:07.831Z,75.17
2023-03-15T05:33:35.689Z,74.84
2023-03-15T05:36:03.316Z,75.15
2023-03-15T05:38:32.642Z,75.20
2023-03-15T05:41:00.023Z,75.07
2023-03-15T05:43:27.861Z,74.20
2023-03-15T05:45:58.031Z,75.16
2023-03-15T05:48:25.855Z,75.70
2023-03-15T05:50:53.504Z,74.66
2023-03-15T05:53:21.407Z,74.24
2023-03-15T05:55:50.243Z,74.10
2023-03-15T05:58:18.058Z,74.45
2023-03-15T06:00:45.541Z,73.87
2023-03-15T06:03:13.400Z,73.22
2023-03-15T06:05:40.938Z,73.21
2023-03-15T06:08:09.154Z,73.29
2023-03-15T06:10:36.666Z,73.89
2023-03-15T06:13:08.975Z,72.80
2023-03-15T06:15:36.855Z,73.02
2023-03-15T06:18:04.880Z,72.58
2023-03-15T06:20:32.732Z,72.61
2023-03-15T06:23:00.633Z,72.32
2023-03-15T06:25:28.473Z,72.09
2023-03-15T06:27:56.354Z,70.80
2023-03-15T06:30:25.473Z,70.54
2023-03-15T06:32:53.428Z,70.77
2023-03-15T06:35:21.044Z,71.05
2023-03-15T06:37:48.967Z,71.53
2023-03-15T06:40:16.898Z,70.63
2023-03-15T06:42:44.796Z,70.66
2023-03-15T06:45:12.552Z,69.96
2023-03-15T06:47:41.767Z,70.31
2023-03-15T06:50:10.838Z,70.43
2023-03-15T06:52:38.728Z,70.33
2023-03-15T06:55:07.000Z,69.90
2023-03-15T06:57:34.810Z,69.59
2023-03-15T07:00:02.140Z,69.15
2023-03-15T07:02:30.065Z,68.86
2023-03-15T07:04:59.120Z,68.30
2023-03-15T07:07:27.490Z,68.99
2023-03-15T07:09:55.311Z,68.71
2023-03-15T07:12:23.702Z,67.19
2023-03-15T07:14:51.137Z,66.79
2023-03-15T07:17:18.946Z,66.77
2023-03-15T07:19:55.822Z,65.96
2023-03-15T07:22:25.969Z,66.23
2023-03-15T07:24:53.461Z,65.90
2023-03-15T07:27:21.335Z,66.02
2023-03-15T07:29:48.971Z,65.09
2023-03-15T07:32:16.888Z,64.74
2023-03-15T07:34:44.355Z,65.46
2023-03-15T07:37:12.128Z,63.66
2023-03-15T07:39:41.008Z,64.02
2023-03-15T07:42:09.491Z,63.77
2023-03-15T07:44:36.926Z,62.29
2023-03-15T07:47:05.282Z,62.56
2023-03-15T07:49:32.781Z,62.85
2023-03-15T07:52:00.660Z,62.44
2023-03-15T07:54:28.862Z,63.63
2023-03-15T07:56:58.141Z,62.98
2023-03-15T07:59:25.706Z,62.65
2023-03-15T08:01:53.569Z,61.83
2023-03-15T08:04:21.040Z,62.53
2023-03-15T08:06:48.908Z,62.95
2023-03-15T08:09:16.410Z,63.02
2023-03-15T08:11:45.330Z,63.60
2023-03-15T08:14:14.671Z,62.36
2023-03-15T08:16:42.477Z,61.36
2023-03-15T08:19:10.108Z,60.46
2023-03-15T08:21:37.954Z,61.80
2023-03-15T08:24:06.013Z,60.43
2023-03-15T08:26:33.946Z,61.87
2023-03-15T08:29:01.537Z,60.72
2023-03-15T08:31:30.858Z,60.25
2023-03-15T08:33:58.416Z,60.32
2023-03-15T08:36:26.198Z,59.42
2023-03-15T08:38:53.642Z,59.49
2023-03-15T08:41:21.474Z,59.33
2023-03-15T08:43:51.640Z,58.35
2023-03-15T08:46:19.586Z,59.32
2023-03-15T08:48:48.689Z,58.91
2023-03-15T08:51:16.670Z,59.37
2023-03-15T08:53:44.322Z,59.36
2023-03-15T08:56:12.328Z,58.44
2023-03-15T08:58:39.864Z,59.18
2023-03-15T09:01:08.003Z,60.06
2023-03-15T09:03:35.695Z,58.36
2023-03-15T09:06:05.337Z,57.48
2023-03-15T09:08:32.849Z,56.39
2023-03-15T09:11:01.101Z,57.73
2023-03-15T09:13:29.015Z,57.05
2023-03-15T09:15:57.506Z,57.63
2023-03-15T09:18:25.790Z,57.05
2023-03-15T09:20:53.690Z,56.56
2023-03-15T09:23:22.626Z,56.75
2023-03-15T09:25:50.545Z,54.87
2023-03-15T09:28:18.063Z,56.21
2023-03-15T09:30:46.207Z,55.48
2023-03-15T09:33:13.770Z,53.50
2023-03-15T09:35:42.148Z,54.59
2023-03-15T09:38:10.348Z,53.88
2023-03-15T09:40:42.124Z,55.29
2023-03-15T09:43:36.639Z,51.83
2023-03-15T09:46:20.812Z,53.44
2023-03-15T09:48:53.934Z,50.86
2023-03-15T09:51:33.860Z,52.18
2023-03-15T09:54:05.666Z,51.00
2023-03-15T09:56:39.716Z,50.08
2023-03-15T09:59:07.610Z,50.63
2023-03-15T10:01:37.853Z,51.16
2023-03-15T10:04:11.602Z,48.81
2023-03-15T10:06:43.910Z,46.19
2023-03-15T10:09:15.586Z,45.48
2023-03-15T10:11:53.827Z,47.49
2023-03-15T10:14:32.537Z,46.18
2023-03-15T10:17:03.954Z,47.93
2023-03-15T10:19:39.609Z,47.51
2023-03-15T10:22:21.540Z,46.05
2023-03-15T10:24:51.597Z,46.14
2023-03-15T10:27:25.813Z,47.65
2023-03-15T10:29:56.629Z,46.37
2023-03-15T10:32:28.642Z,45.85
2023-03-15T10:34:58.423Z,47.53
2023-03-15T10:37:28.979Z,48.30
2023-03-15T10:39:59.218Z,46.87
2023-03-15T10:42:30.926Z,45.78
2023-03-15T10:44:59.745Z,46.07
2023-03-15T10:47:28.152Z,48.50
2023-03-15T10:49:59.489Z,48.65
2023-03-15T10:52:35.617Z,47.73
2023-03-15T10:55:07.401Z,46.93
2023-03-15T10:57:40.189Z,47.83
2023-03-15T11:00:22.121Z,48.83
2023-03-15T11:02:51.982Z,50.91
2023-03-15T11:05:20.407Z,46.44
2023-03-15T11:07:57.157Z,47.35
2023-03-15T11:10:29.587Z,47.33
2023-03-15T11:13:13.510Z,47.46
2023-03-15T11:15:49.494Z,49.07
2023-03-15T11:18:20.631Z,49.16
2023-03-15T11:20:48.286Z,48.38
2023-03-15T11:23:22.208Z,49.82
2023-03-15T11:25:49.698Z,47.86
2023-03-15T11:28:22.767Z,44.97
2023-03-15T11:30:50.552Z,44.68
2023-03-15T11:33:29.877Z,44.99
2023-03-15T11:35:59.509Z,46.83
2023-03-15T11:38:32.815Z,44.56
2023-03-15T11:41:02.668Z,43.96
2023-03-15T11:43:45.333Z,44.08
2023-03-15T11:46:22.894Z,43.96
2023-03-15T11:48:57.626Z,39.69
2023-03-15T11:51:25.261Z,41.09
2023-03-15T11:54:03.679Z,41.09
2023-03-15T11:56:51.873Z,39.08
2023-03-15T11:59:25.987Z,41.51
2023-03-15T12:01:58.452Z,40.00
2023-03-15T12:04:49.466Z,40.27
2023-03-15T12:07:38.317Z,39.09
2023-03-15T12:10:20.440Z,40.39
2023-03-15T12:12:56.795Z,41.77
2023-03-15T12:15:46.393Z,41.91
2023-03-15T12:18:20.148Z,42.03
2023-03-15T12:21:07.893Z,42.45
2023-03-15T12:23:40.948Z,42.71
2023-03-15T12:26:16.748Z,42.15
2023-03-15T12:28:52.870Z,43.33
2023-03-15T12:31:23.337Z,45.13
2023-03-15T12:33:53.169Z,45.37
2023-03-15T12:36:32.486Z,45.90
2023-03-15T12:39:03.236Z,45.01
2023-03-15T12:41:38.230Z,43.72
2023-03-15T12:44:25.728Z,45.37
2023-03-15T12:46:57.814Z,45.14
2023-03-15T12:49:37.463Z,45.99
2023-03-15T12:52:24.949Z,45.65
2023-03-15T12:55:00.053Z,45.38
2023-03-15T12:57:30.315Z,45.26
2023-03-15T13:00:00.664Z,47.44
2023-03-15T13:02:43.354Z,48.24
2023-03-15T13:05:23.175Z,47.56
2023-03-15T13:08:08.030Z,47.38
2023-03-15T13:11:14.142Z,49.09
2023-03-15T13:13:58.391Z,48.57
2023-03-15T13:16:34.025Z,49.12
2023-03-15T13:19:31.495Z,51.52
2023-03-15T13:22:13.195Z,52.48
2023-03-15T13:24:52.022Z,52.33
2023-03-15T13:27:35.585Z,58.04
2023-03-15T13:30:24.732Z,60.35
2023-03-15T13:33:03.388Z,60.75
2023-03-15T13:35:31.748Z,59.74
2023-03-15T13:38:08.214Z,59.03
2023-03-15T13:40:46.358Z,57.99
2023-03-15T13:43:13.999Z,57.11
2023-03-15T13:45:43.213Z,53.94
2023-03-15T13:48:12.905Z,53.43
2023-03-15T13:50:41.564Z,53.96
2023-03-15T13:53:18.974Z,53.79
2023-03-15T13:55:51.818Z,54.25
2023-03-15T13:58:19.755Z,53.42
2023-03-15T14:00:47.888Z,53.51
2023-03-15T14:03:20.940Z,52.90
2023-03-15T14:05:52.001Z,54.76
2023-03-15T14:08:24.883Z,53.74
2023-03-15T14:11:04.857Z,54.09
2023-03-15T14:13:34.158Z,51.52
2023-03-15T14:16:04.348Z,49.85
2023-03-15T14:18:36.461Z,49.83
2023-03-15T14:21:07.838Z,50.54
2023-03-15T14:23:42.188Z,51.38
2023-03-15T14:26:18.353Z,50.92
2023-03-15T14:28:51.013Z,50.69
2023-03-15T14:31:24.679Z,51.73
2023-03-15T14:33:54.736Z,52.57
2023-03-15T14:36:25.567Z,53.69
2023-03-15T14:38:57.563Z,54.14
2023-03-15T14:41:31.498Z,52.35
2023-03-15T14:44:00.156Z,52.09
2023-03-15T14:46:28.450Z,52.60
2023-03-15T14:48:56.051Z,52.44
2023-03-15T14:51:24.691Z,53.08
2023-03-15T14:53:55.984Z,53.52
2023-03-15T14:56:24.317Z,53.35
2023-03-15T14:58:52.290Z,52.14
2023-03-15T15:01:23.884Z,52.91
2023-03-15T15:03:54.192Z,53.58
2023-03-15T15:06:22.318Z,55.85
2023-03-15T15:08:55.535Z,56.40
2023-03-15T15:11:25.831Z,56.17
2023-03-15T15:13:53.544Z,56.55
2023-03-15T15:16:21.723Z,56.84
2023-03-15T15:18:50.497Z,56.69
2023-03-15T15:21:24.083Z,56.15
2023-03-15T15:23:58.417Z,55.35
2023-03-15T15:26:32.981Z,55.02
2023-03-15T15:29:00.481Z,54.63
2023-03-15T15:31:30.244Z,55.05
2023-03-15T15:33:58.434Z,56.50
2023-03-15T15:36:29.876Z,58.95
2023-03-15T15:38:58.861Z,60.20
2023-03-15T15:41:29.869Z,60.21
2023-03-15T15:43:58.567Z,61.29
2023-03-15T15:46:26.596Z,61.57
2023-03-15T15:48:54.973Z,61.01
2023-03-15T15:51:28.719Z,61.27
2023-03-15T15:54:00.492Z,61.54
2023-03-15T15:56:34.346Z,61.52
2023-03-15T15:59:04.210Z,60.86
2023-03-15T16:01:32.841Z,63.81
2023-03-15T16:04:01.342Z,65.17
2023-03-15T16:06:29.471Z,65.91
2023-03-15T16:08:59.822Z,66.49
2023-03-15T16:11:28.590Z,65.94
2023-03-15T16:13:57.721Z,66.30
2023-03-15T16:16:26.030Z,66.23
2023-03-15T16:18:53.828Z,64.19
2023-03-15T16:21:29.399Z,63.23
2023-03-15T16:24:00.574Z,61.86
2023-03-15T16:26:28.574Z,63.03
2023-03-15T16:28:57.648Z,64.58
2023-03-15T16:31:25.770Z,65.68
2023-03-15T16:33:53.287Z,62.59
2023-03-15T16:36:22.557Z,59.89
2023-03-15T16:38:50.209Z,56.73
2023-03-15T16:41:18.188Z,56.94
2023-03-15T16:43:49.069Z,57.74
2023-03-15T16:46:19.117Z,58.59
2023-03-15T16:48:46.802Z,59.89
2023-03-15T16:51:18.264Z,60.05
2023-03-15T16:53:45.999Z,60.56
2023-03-15T16:56:15.405Z,60.74
2023-03-15T16:58:44.495Z,60.51
2023-03-15T17:01:13.897Z,60.54
2023-03-15T17:03:43.033Z,61.03
2023-03-15T17:06:16.843Z,60.66
2023-03-15T17:08:44.440Z,61.57
2023-03-15T17:11:12.838Z,62.89
2023-03-15T17:13:41.383Z,63.16
2023-03-15T17:16:12.088Z,62.88
2023-03-15T17:18:41.328Z,63.29
2023-03-15T17:21:12.712Z,64.11
2023-03-15T17:23:42.714Z,63.49
2023-03-15T17:26:12.839Z,63.92
2023-03-15T17:28:41.492Z,64.32
2023-03-15T17:31:24.560Z,64.50
2023-03-15T17:33:53.053Z,64.86
2023-03-15T17:36:25.487Z,64.54
2023-03-15T17:38:54.117Z,64.09
2023-03-15T17:41:24.804Z,64.52
2023-03-15T17:43:52.620Z,64.29
2023-03-15T17:46:21.948Z,65.21
2023-03-15T17:48:49.404Z,65.23
2023-03-15T17:51:23.121Z,65.67
2023-03-15T17:53:55.046Z,65.66
2023-03-15T17:56:23.042Z,65.93
2023-03-15T17:58:50.564Z,66.33
2023-03-15T18:01:20.556Z,66.33
2023-03-15T18:03:48.627Z,66.68
2023-03-15T18:06:19.620Z,67.46
2023-03-15T18:08:48.375Z,68.73
2023-03-15T18:11:22.806Z,68.74
2023-03-15T18:13:54.454Z,69.01
2023-03-15T18:16:22.530Z,69.60
2023-03-15T18:18:50.858Z,69.15
2023-03-15T18:21:20.831Z,69.41
2023-03-15T18:23:48.915Z,68.64
2023-03-15T18:26:19.907Z,69.07
2023-03-15T18:28:47.860Z,69.08
2023-03-15T18:31:18.115Z,69.85
2023-03-15T18:33:46.124Z,70.86
2023-03-15T18:36:14.547Z,70.59
2023-03-15T18:38:43.149Z,69.84
2023-03-15T18:41:16.211Z,69.33
2023-03-15T18:43:46.222Z,68.64
2023-03-15T18:46:14.403Z,68.42
2023-03-15T18:48:45.010Z,69.02
2023-03-15T18:51:14.463Z,69.62
2023-03-15T18:53:43.224Z,69.33
2023-03-15T18:56:16.866Z,69.20
2023-03-15T18:58:46.102Z,69.49
2023-03-15T19:01:15.290Z,70.10
2023-03-15T19:03:43.471Z,69.68
2023-03-15T19:06:12.780Z,69.07
2023-03-15T19:08:41.326Z,68.60
2023-03-15T19:11:09.490Z,67.77
2023-03-15T19:13:38.131Z,67.38
2023-03-15T19:16:08.927Z,67.58
2023-03-15T19:18:37.090Z,68.40
2023-03-15T19:21:05.693Z,67.66
2023-03-15T19:23:34.050Z,68.39
2023-03-15T19:26:02.609Z,69.15
2023-03-15T19:28:30.729Z,70.25
2023-03-15T19:30:59.291Z,70.41
2023-03-15T19:33:29.835Z,70.16
2023-03-15T19:35:59.623Z,71.05
2023-03-15T19:38:27.970Z,71.63
2023-03-15T19:40:56.762Z,70.60
2023-03-15T19:43:24.654Z,70.04
2023-03-15T19:45:55.615Z,70.14
2023-03-15T19:48:23.712Z,70.17
2023-03-15T19:50:53.574Z,70.38
2023-03-15T19:53:21.510Z,70.14
2023-03-15T19:55:49.461Z,70.69
2023-03-15T19:58:17.191Z,70.66
2023-03-15T20:00:47.676Z,70.82
2023-03-15T20:03:15.518Z,70.92
2023-03-15T20:05:46.337Z,70.87
2023-03-15T20:08:15.579Z,70.43
2023-03-15T20:10:44.242Z,70.69
2023-03-15T20:13:12.051Z,70.27
2023-03-15T20:15:40.726Z,69.97
2023-03-15T20:18:08.338Z,69.82
2023-03-15T20:20:38.476Z,70.71
2023-03-15T20:23:05.960Z,71.36
2023-03-15T20:25:35.762Z,71.63
2023-03-15T20:28:03.465Z,71.64
2023-03-15T20:30:31.431Z,72.13
2023-03-15T20:32:59.016Z,71.88
2023-03-15T20:35:26.884Z,72.45
2023-03-15T20:38:02.290Z,72.70
2023-03-15T20:40:30.283Z,72.46
2023-03-15T20:42:59.479Z,72.44
2023-03-15T20:45:27.416Z,73.02
2023-03-15T20:47:55.113Z,72.98
2023-03-15T20:50:24.030Z,73.52
2023-03-15T20:52:52.222Z,73.25
2023-03-15T20:55:20.262Z,73.18
2023-03-15T20:57:48.048Z,73.03
2023-03-15T21:00:18.753Z,73.14
2023-03-15T21:02:46.987Z,72.45
2023-03-15T21:05:16.160Z,72.57
2023-03-15T21:07:44.674Z,72.52
2023-03-15T21:10:13.764Z,71.94
2023-03-15T21:12:41.767Z,72.39
2023-03-15T21:15:11.121Z,72.73
2023-03-15T21:17:40.109Z,72.53
2023-03-15T21:20:09.494Z,72.24
2023-03-15T21:22:37.167Z,73.29
2023-03-15T21:25:05.854Z,72.88
2023-03-15T21:27:33.445Z,73.22
2023-03-15T21:30:01.441Z,73.06
2023-03-15T21:32:30.877Z,73.49
2023-03-15T21:35:00.533Z,73.62
2023-03-15T21:37:28.090Z,73.89
2023-03-15T21:39:56.993Z,73.86
2023-03-15T21:42:24.609Z,72.91
2023-03-15T21:44:52.549Z,73.25
2023-03-15T21:47:20.102Z,73.77
2023-03-15T21:49:50.390Z,73.28
2023-03-15T21:52:19.280Z,73.21
2023-03-15T21:54:47.375Z,73.11
2023-03-15T21:57:15.242Z,73.17
2023-03-15T21:59:43.148Z,73.72
2023-03-15T22:02:11.494Z,74.65
2023-03-15T22:04:39.634Z,74.30
2023-03-15T22:07:07.227Z,74.27
2023-03-15T22:09:36.567Z,74.04
2023-03-15T22:12:04.650Z,74.22
2023-03-15T22:14:32.611Z,73.86
2023-03-15T22:17:00.237Z,74.63
2023-03-15T22:19:28.498Z,74.21
2023-03-15T22:21:56.101Z,74.01
2023-03-15T22:24:23.885Z,73.66
2023-03-15T22:26:52.978Z,74.33
2023-03-15T22:29:20.791Z,74.58
2023-03-15T22:31:48.349Z,74.87
2023-03-15T22:34:16.521Z,74.17
2023-03-15T22:36:44.097Z,74.75
2023-03-15T22:39:12.550Z,75.80
2023-03-15T22:41:40.062Z,75.75
2023-03-15T22:44:09.652Z,75.45
2023-03-15T22:46:37.270Z,75.61
2023-03-15T22:49:05.092Z,75.55
2023-03-15T22:51:32.572Z,75.26
2023-03-15T22:54:00.448Z,75.04
2023-03-15T22:56:28.044Z,74.61
2023-03-15T22:58:56.324Z,74.42
2023-03-15T23:01:25.159Z,74.29
2023-03-15T23:03:53.358Z,74.13
2023-03-15T23:06:20.795Z,74.98
2023-03-15T23:08:48.832Z,75.19
2023-03-15T23:11:17.622Z,74.42
2023-03-15T23:13:45.502Z,74.03
2023-03-15T23:16:12.942Z,73.92
2023-03-15T23:18:43.954Z,73.66
2023-03-15T23:21:13.188Z,74.01
2023-03-15T23:23:41.237Z,74.03
2023-03-15T23:26:08.936Z,73.97
2023-03-15T23:28:36.894Z,75.39
2023-03-15T23:31:06.659Z,74.86
2023-03-15T23:37:16.757Z,75.38
2023-03-15T23:39:44.796Z,75.31
2023-03-15T23:49:45.211Z,74.63
2023-03-15T23:52:13.303Z,74.68
2023-03-15T23:54:42.238Z,75.00
2023-03-15T23:57:12.586Z,74.77
2023-03-15T23:59:41.137Z,74.42
